Terminal Aerodrome Forecast
Issued by NWS

Home | Current Version | Previous Version | Text Only | Print | Product List | Glossary On
Versions: 1 2 3 4 5 6 7 8 9 10 11 12 13 14 15 16
622
FTUS43 KIND 251728
TAFHUF
TAF
KHUF 251728Z 2518/2618 28014G22KT P6SM BKN040
     FM252100 29014KT P6SM SCT080
     FM260000 29009KT P6SM FEW200
     FM260300 28005KT P6SM SCT250
     FM261100 19004KT P6SM FEW200
     FM261400 18008KT P6SM FEW200=

USA.gov is the U.S. government's official web portal to all federal, state and local government web resources and services.